Time;durP1;ratioP1;P1;durP2;ratioP2;P2;SDS_P1;SDS_P2;PMS_P1;PMS_P2;Temp;Humidity;BMP_temperature;BMP_pressure;BME280_temperature;BME280_humidity;BME280_pressure;Samples;Min_cycle;Max_cycle;Signal;HPM_P1;HPM_P2
2023/09/30 00:00:00;;;;;;;10.02;3.63;;;;;;;11.87;100.00;102220.44;4971242;28;20038;-68
2023/09/30 00:02:27;;;;;;;8.65;3.33;;;;;;;11.88;100.00;102230.72;4967797;28;20644;-67
2023/09/30 00:04:52;;;;;;;8.63;3.28;;;;;;;11.90;100.00;102232.38;4969185;28;20056;-68
2023/09/30 00:07:18;;;;;;;8.65;3.13;;;;;;;11.86;100.00;102231.78;4970287;28;20039;-67
2023/09/30 00:09:43;;;;;;;10.75;3.75;;;;;;;11.84;100.00;102218.91;4963318;28;20513;-67
2023/09/30 00:12:09;;;;;;;16.00;3.50;;;;;;;11.80;100.00;102217.53;4967240;28;20038;-68
2023/09/30 00:14:35;;;;;;;9.93;3.25;;;;;;;11.74;100.00;102227.63;4966913;28;20047;-68
2023/09/30 00:17:01;;;;;;;13.35;4.32;;;;;;;11.66;100.00;102221.28;4969357;28;20046;-67
2023/09/30 00:19:27;;;;;;;8.80;3.22;;;;;;;11.61;100.00;102231.25;4961085;28;20050;-68
2023/09/30 00:21:53;;;;;;;10.30;3.38;;;;;;;11.58;100.00;102228.06;4968754;28;20040;-67
2023/09/30 00:24:19;;;;;;;9.77;3.17;;;;;;;11.57;100.00;102218.66;4968020;28;20035;-67
2023/09/30 00:26:46;;;;;;;9.13;3.00;;;;;;;11.55;100.00;102210.97;4951502;28;20028;-67
2023/09/30 00:29:11;;;;;;;11.18;3.28;;;;;;;11.56;100.00;102211.78;4965406;28;20471;-67
2023/09/30 00:31:37;;;;;;;11.93;3.50;;;;;;;11.55;100.00;102223.16;4963138;28;20031;-68
2023/09/30 00:34:02;;;;;;;13.82;4.22;;;;;;;11.55;100.00;102228.34;4964305;28;20054;-67
2023/09/30 00:36:28;;;;;;;14.90;3.92;;;;;;;11.55;100.00;102239.56;4968012;28;20440;-68
2023/09/30 00:38:53;;;;;;;13.38;3.28;;;;;;;11.56;100.00;102243.78;4982907;28;20106;-68
2023/09/30 00:41:19;;;;;;;6.85;3.35;;;;;;;11.61;100.00;102251.22;4964250;28;20057;-67
2023/09/30 00:43:46;;;;;;;9.20;3.40;;;;;;;11.61;100.00;102249.44;4964954;28;20666;-67
2023/09/30 00:46:27;;;;;;;10.15;2.95;;;;;;;11.64;100.00;102244.00;4982291;28;20509;-67
2023/09/30 00:48:54;;;;;;;10.52;3.28;;;;;;;11.65;100.00;102245.63;4964907;28;20042;-66
2023/09/30 00:51:20;;;;;;;9.00;3.42;;;;;;;11.66;100.00;102242.09;4978895;28;20321;-67
2023/09/30 00:53:46;;;;;;;12.90;4.45;;;;;;;11.65;100.00;102244.81;4964273;28;20038;-67
2023/09/30 00:56:13;;;;;;;10.35;3.25;;;;;;;11.62;100.00;102245.03;4965047;28;20035;-67
2023/09/30 00:58:39;;;;;;;15.45;4.65;;;;;;;11.57;100.00;102248.03;4967993;28;20040;-67
2023/09/30 01:01:05;;;;;;;9.70;3.38;;;;;;;11.55;100.00;102251.72;4965466;28;20053;-67
2023/09/30 01:03:30;;;;;;;10.70;2.80;;;;;;;11.54;100.00;102243.09;4969640;28;20046;-67
2023/09/30 01:05:56;;;;;;;10.27;3.40;;;;;;;11.55;100.00;102234.34;4979770;28;20049;-67
2023/09/30 01:08:22;;;;;;;13.90;4.20;;;;;;;11.56;100.00;102245.56;4961957;28;20119;-67
2023/09/30 01:10:49;;;;;;;10.63;3.72;;;;;;;11.57;100.00;102235.06;4967290;28;20049;-67
2023/09/30 01:13:14;;;;;;;14.55;4.18;;;;;;;11.60;100.00;102234.81;4984936;28;20038;-67
2023/09/30 01:15:40;;;;;;;11.45;3.13;;;;;;;11.63;100.00;102257.09;4976499;28;20034;-67
2023/09/30 01:18:06;;;;;;;11.73;3.60;;;;;;;11.66;100.00;102262.06;4973911;28;20051;-67
2023/09/30 01:20:32;;;;;;;10.40;3.85;;;;;;;11.68;100.00;102266.16;4967239;28;20070;-67
2023/09/30 01:22:57;;;;;;;14.60;3.80;;;;;;;11.69;100.00;102267.78;4969170;28;20038;-67
2023/09/30 01:25:24;;;;;;;16.48;4.13;;;;;;;11.73;100.00;102254.56;4971737;28;20121;-67
2023/09/30 01:27:51;;;;;;;14.40;4.40;;;;;;;11.75;100.00;102253.47;4986046;28;20039;-67
2023/09/30 01:30:17;;;;;;;15.32;3.95;;;;;;;11.76;100.00;102236.13;4982273;28;20530;-67
2023/09/30 01:32:44;;;;;;;18.10;4.50;;;;;;;11.76;100.00;102238.72;4984404;28;20047;-67
2023/09/30 01:35:09;;;;;;;9.70;3.72;;;;;;;11.76;100.00;102238.72;4973412;28;20058;-67
2023/09/30 01:37:38;;;;;;;14.48;4.40;;;;;;;11.77;100.00;102246.41;4965572;28;20045;-67
2023/09/30 01:40:04;;;;;;;12.13;3.92;;;;;;;11.74;100.00;102251.03;4952251;28;20038;-67
2023/09/30 01:42:29;;;;;;;9.13;3.97;;;;;;;11.68;100.00;102244.56;4974303;28;20046;-67
2023/09/30 01:44:56;;;;;;;9.98;3.30;;;;;;;11.62;100.00;102245.91;4972653;28;20043;-67
2023/09/30 01:47:22;;;;;;;8.00;3.13;;;;;;;11.61;100.00;102259.00;4970160;28;20065;-67
2023/09/30 01:49:47;;;;;;;12.80;3.42;;;;;;;11.60;100.00;102271.19;4971577;28;20043;-67
2023/09/30 01:52:14;;;;;;;10.32;3.78;;;;;;;11.62;100.00;102265.84;4955357;28;20034;-67
2023/09/30 01:54:40;;;;;;;11.68;3.38;;;;;;;11.64;100.00;102267.38;4987767;28;21197;-68
2023/09/30 01:57:05;;;;;;;14.15;4.63;;;;;;;11.66;100.00;102272.44;4969480;28;20042;-67
2023/09/30 01:59:31;;;;;;;13.82;4.47;;;;;;;11.68;100.00;102278.34;4987933;28;20662;-67
2023/09/30 02:01:57;;;;;;;16.85;5.22;;;;;;;11.70;100.00;102276.44;4987504;28;20034;-67
2023/09/30 02:04:23;;;;;;;13.75;5.32;;;;;;;11.73;100.00;102283.13;4984485;28;20042;-67
2023/09/30 02:06:48;;;;;;;13.95;4.30;;;;;;;11.75;100.00;102284.66;4968048;28;20033;-68
2023/09/30 02:09:14;;;;;;;15.68;4.38;;;;;;;11.76;100.00;102275.09;4957902;28;20038;-68
2023/09/30 02:11:41;;;;;;;17.08;4.50;;;;;;;11.75;100.00;102274.25;4968813;28;20082;-67
2023/09/30 02:14:06;;;;;;;14.25;4.50;;;;;;;11.76;100.00;102272.50;4983251;28;20081;-67
2023/09/30 02:16:32;;;;;;;13.20;4.63;;;;;;;11.74;100.00;102264.81;4982525;28;20067;-67
2023/09/30 02:18:58;;;;;;;12.77;4.97;;;;;;;11.69;100.00;102264.38;4972326;28;20130;-67
2023/09/30 02:21:23;;;;;;;12.63;3.80;;;;;;;11.61;100.00;102262.41;4966620;28;20679;-67
2023/09/30 02:23:54;;;;;;;9.45;4.97;;;;;;;11.55;100.00;102252.53;4967764;28;20509;-67
2023/09/30 02:26:21;;;;;;;19.58;5.28;;;;;;;11.53;100.00;102251.00;4968429;28;20042;-67
2023/09/30 02:28:48;;;;;;;9.00;3.72;;;;;;;11.49;100.00;102253.06;4966025;28;20078;-67
2023/09/30 02:31:13;;;;;;;9.20;3.67;;;;;;;11.45;100.00;102249.03;4977014;28;20592;-67
2023/09/30 02:33:39;;;;;;;16.70;4.65;;;;;;;11.42;100.00;102241.53;4967146;28;20797;-67
2023/09/30 02:36:08;;;;;;;10.48;3.78;;;;;;;11.38;100.00;102251.34;4967378;28;20035;-67
2023/09/30 02:38:36;;;;;;;9.85;3.45;;;;;;;11.33;100.00;102269.06;4965994;28;20093;-66
2023/09/30 02:41:02;;;;;;;11.05;3.65;;;;;;;11.29;100.00;102263.28;4970356;28;20565;-67
2023/09/30 02:43:28;;;;;;;9.63;3.75;;;;;;;11.27;100.00;102266.97;4971705;28;20039;-67
2023/09/30 02:45:55;;;;;;;12.48;3.72;;;;;;;11.27;100.00;102274.75;4966802;28;20041;-67
2023/09/30 02:48:21;;;;;;;14.10;4.82;;;;;;;11.26;100.00;102279.13;4965128;28;20398;-67
2023/09/30 02:50:46;;;;;;;11.77;6.03;;;;;;;11.26;100.00;102283.47;4965804;28;20613;-67
2023/09/30 02:53:13;;;;;;;15.30;6.30;;;;;;;11.27;100.00;102280.78;4970056;28;20042;-67
2023/09/30 02:55:39;;;;;;;13.80;5.90;;;;;;;11.27;100.00;102292.94;4970399;28;20035;-67
2023/09/30 02:58:04;;;;;;;12.25;5.10;;;;;;;11.26;100.00;102281.72;4968276;28;20910;-67
2023/09/30 03:00:32;;;;;;;14.43;4.88;;;;;;;11.26;100.00;102279.13;4967606;28;20046;-67
2023/09/30 03:03:01;;;;;;;18.63;6.22;;;;;;;11.24;100.00;102267.22;4982966;28;20445;-67
2023/09/30 03:05:27;;;;;;;12.27;4.78;;;;;;;11.24;100.00;102264.63;4966989;28;20065;-67
2023/09/30 03:07:54;;;;;;;13.00;5.13;;;;;;;11.24;100.00;102268.03;4963712;28;20047;-67
2023/09/30 03:10:20;;;;;;;15.68;5.50;;;;;;;11.25;100.00;102272.28;4967407;28;20425;-67
2023/09/30 03:12:51;;;;;;;15.73;6.78;;;;;;;11.25;100.00;102268.88;4967415;28;20037;-67
2023/09/30 03:15:17;;;;;;;14.50;5.75;;;;;;;11.25;100.00;102272.28;4965269;28;20129;-67
2023/09/30 03:17:43;;;;;;;13.00;6.13;;;;;;;11.24;100.00;102280.19;4983971;28;20030;-67
2023/09/30 03:20:14;;;;;;;12.65;6.00;;;;;;;11.23;100.00;102279.38;4964791;28;20086;-67
2023/09/30 03:22:40;;;;;;;10.40;5.40;;;;;;;11.22;100.00;102280.31;4979674;28;20038;-67
2023/09/30 03:25:08;;;;;;;13.40;5.60;;;;;;;11.20;100.00;102277.00;4969640;28;20562;-67
2023/09/30 03:27:34;;;;;;;10.23;5.53;;;;;;;11.17;100.00;102264.31;4966783;28;20038;-67
2023/09/30 03:30:01;;;;;;;17.60;6.20;;;;;;;11.16;100.00;102264.41;4962793;28;20109;-67
2023/09/30 03:32:26;;;;;;;17.33;8.25;;;;;;;11.17;100.00;102266.91;4965973;28;20056;-67
2023/09/30 03:34:52;;;;;;;18.20;8.30;;;;;;;11.15;100.00;102263.59;4966525;28;20466;-67
2023/09/30 03:37:18;;;;;;;14.73;7.20;;;;;;;11.14;100.00;102266.31;4963650;28;20049;-67
2023/09/30 03:39:43;;;;;;;13.85;6.03;;;;;;;11.12;100.00;102265.63;4962659;28;20047;-67
2023/09/30 03:42:13;;;;;;;12.88;5.63;;;;;;;11.10;100.00;102270.94;4963856;28;20102;-67
2023/09/30 03:44:38;;;;;;;10.63;5.40;;;;;;;11.03;100.00;102268.00;4961480;28;20046;-67
2023/09/30 03:47:04;;;;;;;11.10;5.50;;;;;;;10.95;100.00;102259.19;4965891;28;20066;-68
2023/09/30 03:49:30;;;;;;;10.70;5.30;;;;;;;10.83;100.00;102255.78;4963111;28;20076;-67
2023/09/30 03:51:55;;;;;;;8.90;4.63;;;;;;;10.78;100.00;102244.97;4965129;28;20037;-67
2023/09/30 03:54:21;;;;;;;11.48;4.60;;;;;;;10.74;100.00;102254.75;4965967;28;20493;-67
2023/09/30 03:56:47;;;;;;;8.95;4.30;;;;;;;10.70;100.00;102248.16;4963159;28;20066;-67
2023/09/30 03:59:12;;;;;;;11.13;4.65;;;;;;;10.68;100.00;102255.22;4963041;28;20031;-67
2023/09/30 04:01:42;;;;;;;11.05;5.47;;;;;;;10.67;100.00;102264.78;4967237;28;20039;-67
2023/09/30 04:04:09;;;;;;;11.88;5.25;;;;;;;10.68;100.00;102266.44;4976890;28;20528;-68
2023/09/30 04:06:38;;;;;;;11.20;5.32;;;;;;;10.66;100.00;102260.56;4963787;28;20496;-67
2023/09/30 04:09:09;;;;;;;11.65;5.22;;;;;;;10.63;100.00;102254.78;4965341;28;20050;-67
2023/09/30 04:11:35;;;;;;;10.85;4.90;;;;;;;10.56;100.00;102254.44;4963722;28;20038;-67
2023/09/30 04:14:01;;;;;;;8.30;4.93;;;;;;;10.50;100.00;102254.91;4965286;28;20050;-67
2023/09/30 04:16:28;;;;;;;9.82;4.50;;;;;;;10.46;100.00;102249.13;4969338;28;20043;-67
2023/09/30 04:18:55;;;;;;;6.28;3.90;;;;;;;10.44;100.00;102242.44;4967305;28;20046;-67
2023/09/30 04:21:20;;;;;;;7.90;4.85;;;;;;;10.40;100.00;102244.44;4971995;28;20043;-67
2023/09/30 04:23:46;;;;;;;10.10;5.05;;;;;;;10.36;100.00;102247.38;4965105;28;20039;-67
2023/09/30 04:26:12;;;;;;;11.05;4.60;;;;;;;10.35;100.00;102264.72;4962135;28;20086;-67
2023/09/30 04:28:38;;;;;;;10.88;5.85;;;;;;;10.33;100.00;102277.78;4963914;28;20560;-67
2023/09/30 04:31:04;;;;;;;12.25;5.22;;;;;;;10.31;100.00;102284.03;4964999;28;20042;-67
2023/09/30 04:33:30;;;;;;;10.88;5.38;;;;;;;10.31;100.00;102290.03;4968378;28;20047;-67
2023/09/30 04:35:55;;;;;;;14.45;5.68;;;;;;;10.34;100.00;102283.81;4967539;28;20058;-68
2023/09/30 04:38:21;;;;;;;11.82;5.28;;;;;;;10.36;100.00;102289.72;4969412;28;20036;-67
2023/09/30 04:40:51;;;;;;;11.32;6.75;;;;;;;10.40;100.00;102290.31;4982841;28;20564;-67
2023/09/30 04:43:17;;;;;;;16.42;6.90;;;;;;;10.41;100.00;102292.75;4963436;28;20031;-67
2023/09/30 04:45:42;;;;;;;14.57;6.90;;;;;;;10.41;100.00;102291.94;4967518;28;20201;-67
2023/09/30 04:48:08;;;;;;;18.58;6.40;;;;;;;10.39;100.00;102283.44;4964270;28;20043;-67
2023/09/30 04:50:34;;;;;;;14.80;7.28;;;;;;;10.38;100.00;102287.81;4971464;28;20050;-67
2023/09/30 04:52:59;;;;;;;11.77;6.97;;;;;;;10.38;100.00;102284.38;4985868;28;20045;-67
2023/09/30 04:55:26;;;;;;;14.43;7.30;;;;;;;10.36;100.00;102288.84;4973336;28;20134;-67
2023/09/30 04:57:51;;;;;;;15.50;8.10;;;;;;;10.36;100.00;102286.25;4969884;28;20146;-67
2023/09/30 05:00:21;;;;;;;16.42;7.90;;;;;;;10.35;100.00;102280.25;4967452;28;20039;-67
2023/09/30 05:02:47;;;;;;;17.33;8.00;;;;;;;10.35;100.00;102288.03;4967545;28;20039;-67
2023/09/30 05:05:14;;;;;;;19.25;8.55;;;;;;;10.34;100.00;102278.63;4968580;28;20045;-67
2023/09/30 05:07:41;;;;;;;19.08;8.90;;;;;;;10.37;100.00;102278.38;4969540;28;20062;-67
2023/09/30 05:10:10;;;;;;;24.92;10.60;;;;;;;10.41;100.00;102286.75;4985533;28;20133;-67
2023/09/30 05:12:36;;;;;;;19.27;9.63;;;;;;;10.37;100.00;102293.94;4983664;28;20042;-67
2023/09/30 05:15:02;;;;;;;20.80;9.20;;;;;;;10.35;100.00;102287.22;4972633;28;20046;-67
2023/09/30 05:17:28;;;;;;;18.80;9.48;;;;;;;10.31;100.00;102289.22;4957584;28;20050;-67
2023/09/30 05:19:56;;;;;;;19.33;8.43;;;;;;;10.31;100.00;102295.22;4969709;28;20094;-67
2023/09/30 05:22:23;;;;;;;21.80;9.88;;;;;;;10.30;100.00;102300.50;4968582;28;20035;-67
2023/09/30 05:24:52;;;;;;;16.42;8.40;;;;;;;10.25;100.00;102305.22;4972989;28;20066;-66
2023/09/30 05:27:18;;;;;;;19.40;8.13;;;;;;;10.17;100.00;102299.78;4967537;28;20851;-67
2023/09/30 05:29:43;;;;;;;16.20;7.30;;;;;;;10.11;100.00;102309.69;4974110;28;20053;-67
2023/09/30 05:32:09;;;;;;;15.70;6.82;;;;;;;10.04;100.00;102307.66;4973265;28;20069;-67
2023/09/30 05:34:34;;;;;;;12.73;7.03;;;;;;;9.99;100.00;102302.00;4967716;28;20050;-67
2023/09/30 05:37:00;;;;;;;15.18;7.20;;;;;;;9.95;100.00;102306.59;4970709;28;20113;-66
2023/09/30 05:39:25;;;;;;;13.10;6.38;;;;;;;9.92;100.00;102312.00;4963899;28;20039;-67
2023/09/30 05:41:51;;;;;;;16.50;7.05;;;;;;;9.90;100.00;102309.53;4970773;28;20085;-68
2023/09/30 05:44:16;;;;;;;12.82;6.85;;;;;;;9.89;100.00;102317.44;4972786;28;20405;-67
2023/09/30 05:46:45;;;;;;;15.48;7.55;;;;;;;9.85;100.00;102310.81;4972847;28;20043;-67
2023/09/30 05:49:13;;;;;;;13.23;6.88;;;;;;;9.82;100.00;102319.63;4966711;28;20054;-68
2023/09/30 05:51:42;;;;;;;15.73;6.60;;;;;;;9.81;100.00;102325.75;4981310;28;20601;-67
2023/09/30 05:54:09;;;;;;;14.65;6.43;;;;;;;9.80;100.00;102329.28;4968862;28;20042;-68
2023/09/30 05:56:38;;;;;;;17.02;6.80;;;;;;;9.79;100.00;102327.63;4970350;28;20388;-67
2023/09/30 05:59:05;;;;;;;15.15;6.75;;;;;;;9.80;100.00;102336.25;4970349;28;20412;-67
2023/09/30 06:01:32;;;;;;;19.52;7.55;;;;;;;9.78;100.00;102322.59;4970442;28;20138;-67
2023/09/30 06:03:58;;;;;;;9.02;5.15;;;;;;;9.78;100.00;102322.59;4965774;28;20054;-67
2023/09/30 06:06:25;;;;;;;12.65;5.90;;;;;;;9.78;100.00;102336.34;4969177;28;20127;-67
2023/09/30 06:08:51;;;;;;;14.25;5.68;;;;;;;9.78;100.00;102328.59;4969387;28;20049;-67
2023/09/30 06:11:28;;;;;;;9.00;4.95;;;;;;;9.78;100.00;102327.78;4972303;28;20042;-66
2023/09/30 06:14:00;;;;;;;14.15;5.10;;;;;;;9.78;100.00;102323.41;4971157;28;20837;-67
2023/09/30 06:16:27;;;;;;;13.50;5.47;;;;;;;9.81;100.00;102330.94;4970708;28;20049;-67
2023/09/30 06:18:53;;;;;;;10.55;5.07;;;;;;;9.84;100.00;102330.72;4965630;28;20439;-67
2023/09/30 06:21:20;;;;;;;11.25;4.75;;;;;;;9.87;100.00;102330.50;4964552;28;20043;-67
2023/09/30 06:23:51;;;;;;;13.20;5.70;;;;;;;9.93;100.00;102332.63;4970210;28;20528;-67
2023/09/30 06:26:17;;;;;;;10.77;6.18;;;;;;;9.99;100.00;102325.34;4970867;28;20039;-67
2023/09/30 06:28:44;;;;;;;10.50;5.88;;;;;;;10.06;100.00;102331.72;4970225;28;20104;-67
2023/09/30 06:31:10;;;;;;;16.80;6.28;;;;;;;10.22;100.00;102339.97;4969246;28;20046;-67
2023/09/30 06:33:38;;;;;;;11.13;5.68;;;;;;;10.51;100.00;102334.38;4970304;28;20683;-67
2023/09/30 06:36:16;;;;;;;12.85;7.05;;;;;;;10.93;100.00;102333.75;4966221;28;20047;-67
2023/09/30 06:38:43;;;;;;;12.25;6.68;;;;;;;11.36;100.00;102338.94;4965775;28;20065;-67
2023/09/30 06:41:09;;;;;;;12.02;6.13;;;;;;;11.80;100.00;102331.06;4970853;28;20041;-67
2023/09/30 06:43:35;;;;;;;14.45;6.05;;;;;;;12.21;100.00;102329.41;4970018;28;20062;-67
2023/09/30 06:46:09;;;;;;;13.15;6.80;;;;;;;12.62;100.00;102325.03;4966633;28;20038;-67
2023/09/30 06:48:35;;;;;;;13.52;7.35;;;;;;;13.04;100.00;102338.72;4967127;28;20047;-67
2023/09/30 06:51:01;;;;;;;11.77;6.45;;;;;;;13.40;100.00;102333.84;4968147;28;20513;-67
2023/09/30 06:53:27;;;;;;;14.07;6.30;;;;;;;13.74;100.00;102335.19;4983024;28;20038;-67
2023/09/30 06:55:53;;;;;;;12.30;6.50;;;;;;;14.03;98.68;102322.09;4967094;28;20077;-67
2023/09/30 06:58:21;;;;;;;13.32;7.05;;;;;;;14.35;97.24;102323.47;4981602;28;20042;-67
2023/09/30 07:00:51;;;;;;;10.93;6.20;;;;;;;14.65;95.68;102324.19;4975949;28;20034;-66
2023/09/30 07:03:19;;;;;;;12.77;6.85;;;;;;;14.96;94.02;102343.81;4968905;28;20047;-67
2023/09/30 07:05:45;;;;;;;10.00;6.28;;;;;;;15.30;92.11;102345.78;4970551;28;20045;-67
2023/09/30 07:08:11;;;;;;;17.17;7.53;;;;;;;15.54;90.47;102339.94;4967855;28;20039;-67
2023/09/30 07:10:37;;;;;;;14.88;7.95;;;;;;;15.88;90.51;102335.78;4969231;28;20402;-67
2023/09/30 07:13:03;;;;;;;20.20;8.68;;;;;;;16.24;89.50;102333.06;4966730;28;20682;-67
2023/09/30 07:15:29;;;;;;;18.40;8.65;;;;;;;16.52;88.65;102336.28;4971019;28;20453;-68
2023/09/30 07:17:54;;;;;;;17.10;9.32;;;;;;;16.63;88.12;102341.25;4969478;28;20035;-68
2023/09/30 07:20:22;;;;;;;20.85;11.05;;;;;;;16.78;87.80;102335.38;4965206;28;20043;-68
2023/09/30 07:22:47;;;;;;;19.90;10.35;;;;;;;16.99;88.13;102354.13;4967915;28;20564;-68
2023/09/30 07:25:17;;;;;;;19.38;9.27;;;;;;;17.23;86.71;102350.69;4965624;28;20051;-68
2023/09/30 07:27:46;;;;;;;22.40;9.85;;;;;;;17.54;85.58;102360.56;4964619;28;20035;-68
2023/09/30 07:30:14;;;;;;;26.33;12.15;;;;;;;17.74;84.28;102368.09;4965233;28;20035;-68
2023/09/30 07:32:41;;;;;;;25.77;12.57;;;;;;;17.78;83.87;102372.00;4965462;28;20046;-68
2023/09/30 07:35:07;;;;;;;21.83;10.65;;;;;;;17.92;84.33;102383.69;4964154;28;20047;-68
2023/09/30 07:37:33;;;;;;;21.85;10.32;;;;;;;18.21;82.62;102386.56;4979692;28;20082;-68
2023/09/30 07:39:59;;;;;;;20.48;10.90;;;;;;;18.47;82.17;102375.00;4966384;28;20043;-68
2023/09/30 07:42:25;;;;;;;21.83;10.98;;;;;;;18.54;80.80;102375.97;4965147;28;20049;-67
2023/09/30 07:44:50;;;;;;;25.40;11.25;;;;;;;18.72;79.06;102380.16;4951244;28;20038;-68
2023/09/30 07:47:16;;;;;;;20.80;11.68;;;;;;;18.74;79.00;102379.00;4983484;28;20034;-68
2023/09/30 07:49:41;;;;;;;20.90;10.98;;;;;;;18.93;78.31;102392.72;4964659;28;20034;-68
2023/09/30 07:52:07;;;;;;;19.48;10.13;;;;;;;18.97;77.55;102386.94;4966081;28;20589;-68
2023/09/30 07:54:32;;;;;;;19.10;9.75;;;;;;;19.22;77.81;102387.59;4968659;28;20043;-68
2023/09/30 07:56:59;;;;;;;18.58;9.05;;;;;;;19.55;77.24;102394.41;4949894;28;20432;-68
2023/09/30 07:59:25;;;;;;;18.95;7.82;;;;;;;19.72;75.82;102403.00;4963934;28;20631;-68
2023/09/30 08:01:52;;;;;;;15.70;7.63;;;;;;;19.93;74.42;102402.34;4963377;28;20030;-69
2023/09/30 08:04:18;;;;;;;17.33;7.78;;;;;;;20.09;72.44;102409.28;4964709;28;20026;-68
2023/09/30 08:06:44;;;;;;;15.50;8.18;;;;;;;20.10;73.32;102418.78;4965760;28;20031;-68
2023/09/30 08:09:12;;;;;;;17.90;8.48;;;;;;;20.03;72.86;102419.50;4949927;28;20035;-68
2023/09/30 08:11:38;;;;;;;17.08;8.70;;;;;;;20.18;72.66;102416.91;4967704;28;20039;-68
2023/09/30 08:14:06;;;;;;;15.30;7.68;;;;;;;20.36;71.48;102420.97;4964586;28;20045;-67
2023/09/30 08:16:37;;;;;;;17.40;7.47;;;;;;;20.45;70.41;102422.53;4967079;28;20109;-68
2023/09/30 08:19:03;;;;;;;12.05;6.75;;;;;;;20.57;69.82;102413.19;4964867;28;20053;-68
2023/09/30 08:21:30;;;;;;;14.18;6.93;;;;;;;20.37;71.17;102414.72;4964791;28;20038;-68
2023/09/30 08:23:55;;;;;;;10.63;5.72;;;;;;;20.61;70.30;102411.84;4973563;28;20042;-67
2023/09/30 08:26:20;;;;;;;19.58;6.72;;;;;;;20.77;69.48;102408.16;4984700;28;20417;-68
2023/09/30 08:28:46;;;;;;;16.02;6.90;;;;;;;20.90;69.50;102394.31;4971459;28;20046;-68
2023/09/30 08:31:11;;;;;;;11.38;5.35;;;;;;;20.78;68.44;102399.25;4965401;28;20137;-68
2023/09/30 08:33:39;;;;;;;21.20;6.03;;;;;;;21.06;68.40;102401.19;4972786;28;20035;-68
2023/09/30 08:36:07;;;;;;;9.43;4.35;;;;;;;21.12;65.78;102399.63;4973395;28;20078;-68
2023/09/30 08:38:38;;;;;;;17.23;6.25;;;;;;;20.65;67.94;102409.66;4968692;28;20043;-68
2023/09/30 08:41:03;;;;;;;13.40;5.18;;;;;;;20.28;68.53;102397.38;4972307;28;20042;-68
2023/09/30 08:43:31;;;;;;;16.95;5.60;;;;;;;19.80;69.76;102395.06;4968666;28;20575;-68
2023/09/30 08:45:58;;;;;;;9.90;4.40;;;;;;;19.51;72.54;102399.22;4972885;28;20046;-67
2023/09/30 08:48:27;;;;;;;13.30;5.30;;;;;;;19.03;75.03;102402.00;4975086;28;20042;-68
2023/09/30 08:50:54;;;;;;;30.52;7.45;;;;;;;19.36;75.07;102396.53;4984657;28;20036;-67
2023/09/30 08:53:19;;;;;;;12.82;5.90;;;;;;;18.86;75.65;102395.22;4973343;28;20038;-68
2023/09/30 08:55:46;;;;;;;12.40;5.90;;;;;;;18.59;78.54;102392.03;4956290;28;20385;-68
2023/09/30 08:58:14;;;;;;;13.25;5.13;;;;;;;18.44;80.13;102391.09;4973589;28;20181;-68
2023/09/30 09:00:40;;;;;;;15.75;5.95;;;;;;;19.02;78.38;102387.25;4973952;28;20122;-67
2023/09/30 09:03:08;;;;;;;16.23;6.30;;;;;;;19.49;74.85;102374.91;4977620;28;20078;-67
2023/09/30 09:05:34;;;;;;;17.92;7.00;;;;;;;19.35;76.11;102381.75;4973647;28;20156;-67
2023/09/30 09:08:00;;;;;;;21.17;5.55;;;;;;;19.24;77.35;102385.63;4972120;28;20104;-67
2023/09/30 09:10:26;;;;;;;12.88;5.20;;;;;;;18.70;79.14;102395.25;4969023;28;20038;-67
2023/09/30 09:12:59;;;;;;;10.85;4.78;;;;;;;18.68;78.63;102384.91;4967965;28;20038;-68
2023/09/30 09:15:30;;;;;;;;;;;;;;;18.52;79.82;102383.19;4971251;28;20046;-67
2023/09/30 09:17:56;;;;;;;17.27;5.13;;;;;;;18.47;79.44;102383.69;4986655;28;19922;-67
2023/09/30 09:20:25;;;;;;;14.10;5.70;;;;;;;18.32;80.74;102388.00;4972992;28;20069;-67
2023/09/30 09:22:56;;;;;;;11.43;4.43;;;;;;;18.22;81.30;102375.09;4966137;28;20401;-67
2023/09/30 09:25:23;;;;;;;13.27;5.75;;;;;;;18.08;81.64;102381.84;4971549;28;20068;-67
2023/09/30 09:27:50;;;;;;;12.95;4.50;;;;;;;17.94;83.14;102385.16;4964966;28;20724;-68
2023/09/30 09:30:16;;;;;;;11.82;5.05;;;;;;;17.64;83.39;102390.06;4988308;28;20098;-67
2023/09/30 09:33:01;;;;;;;14.00;5.22;;;;;;;17.51;84.55;102384.47;4973090;28;20073;-67
2023/09/30 09:35:32;;;;;;;15.65;4.88;;;;;;;17.35;85.71;102387.94;4973584;28;20145;-67
2023/09/30 09:38:05;;;;;;;15.25;5.22;;;;;;;17.25;87.01;102389.88;4986263;28;20038;-67
2023/09/30 09:40:38;;;;;;;8.15;3.67;;;;;;;17.13;88.27;102390.16;4969723;28;20046;-67
2023/09/30 09:43:05;;;;;;;12.20;4.57;;;;;;;17.15;89.07;102391.81;4970356;28;20570;-67
2023/09/30 09:45:33;;;;;;;14.40;4.05;;;;;;;17.18;89.45;102399.34;4970436;28;20038;-67
2023/09/30 09:47:59;;;;;;;11.68;4.50;;;;;;;17.26;89.25;102397.56;4971383;28;20082;-67
2023/09/30 09:50:25;;;;;;;12.38;4.47;;;;;;;17.28;88.90;102397.41;4970085;28;20086;-67
2023/09/30 09:52:53;;;;;;;9.40;3.55;;;;;;;17.32;87.74;102399.53;4968537;28;20176;-67
2023/09/30 09:55:20;;;;;;;14.15;4.13;;;;;;;17.35;87.42;102408.06;4972206;28;20628;-67
2023/09/30 09:57:46;;;;;;;8.70;4.13;;;;;;;17.43;86.98;102410.72;4971033;28;20034;-67
2023/09/30 10:00:16;;;;;;;11.75;4.88;;;;;;;17.42;86.88;102416.94;4991575;28;20042;-67
2023/09/30 10:02:42;;;;;;;6.78;3.47;;;;;;;17.43;86.43;102415.97;4969043;28;20050;-67
2023/09/30 10:05:09;;;;;;;9.30;3.10;;;;;;;17.45;86.89;102422.66;4968207;28;20046;-67
2023/09/30 10:07:38;;;;;;;13.23;5.30;;;;;;;17.60;85.45;102424.66;4970373;28;20081;-67
2023/09/30 10:10:10;;;;;;;10.45;4.38;;;;;;;17.92;83.74;102430.91;4969032;28;20085;-67
2023/09/30 10:12:38;;;;;;;9.05;3.95;;;;;;;18.14;82.20;102432.03;4969171;28;20100;-67
2023/09/30 10:15:23;;;;;;;10.68;4.95;;;;;;;18.49;78.80;102415.03;4973945;28;20073;-67
2023/09/30 10:18:06;;;;;;;13.75;4.43;;;;;;;18.81;76.75;102408.06;4963024;28;20034;-67
2023/09/30 10:20:44;;;;;;;13.90;6.20;;;;;;;18.78;75.39;102405.72;4966792;28;20050;-67
2023/09/30 10:23:24;;;;;;;11.65;4.55;;;;;;;18.83;75.55;102408.69;4966126;28;20418;-66
2023/09/30 10:25:57;;;;;;;14.35;5.00;;;;;;;18.68;76.36;102405.94;4966914;28;20393;-67
2023/09/30 10:28:39;;;;;;;9.95;3.97;;;;;;;18.76;76.84;102403.28;4973371;28;20214;-67
2023/09/30 10:31:24;;;;;;;13.55;4.55;;;;;;;19.01;76.08;102411.88;4964949;28;20501;-67
2023/09/30 10:34:02;;;;;;;10.13;3.63;;;;;;;18.99;75.50;102415.69;4968179;28;20121;-67
2023/09/30 10:36:35;;;;;;;10.77;2.97;;;;;;;18.64;75.79;102423.03;4968230;28;20418;-67
2023/09/30 10:39:02;;;;;;;5.95;2.70;;;;;;;18.47;76.77;102425.72;4964524;28;20501;-67
2023/09/30 10:41:40;;;;;;;9.80;2.85;;;;;;;18.39;78.33;102422.31;4969030;28;20532;-67
2023/09/30 10:44:25;;;;;;;9.40;3.10;;;;;;;18.26;79.50;102423.63;4967659;28;20049;-68
2023/09/30 10:47:14;;;;;;;8.95;2.75;;;;;;;18.13;80.22;102439.09;4968354;28;20493;-67
2023/09/30 10:49:39;;;;;;;9.60;2.90;;;;;;;18.20;81.02;102442.69;4958132;28;20050;-67
2023/09/30 10:52:05;;;;;;;9.90;2.90;;;;;;;18.36;80.36;102433.94;4966466;28;20038;-67
2023/09/30 10:54:32;;;;;;;11.48;3.53;;;;;;;18.86;79.79;102424.13;4959824;28;20061;-67
2023/09/30 10:56:59;;;;;;;7.28;3.17;;;;;;;19.20;74.23;102412.44;4970263;28;20062;-67
2023/09/30 10:59:27;;;;;;;9.57;3.50;;;;;;;19.31;75.10;102408.56;4968942;28;20049;-67
2023/09/30 11:01:53;;;;;;;9.00;3.45;;;;;;;19.25;73.10;102405.66;4967213;28;20129;-67
2023/09/30 11:04:19;;;;;;;12.75;4.03;;;;;;;19.39;73.06;102400.63;4971422;28;20045;-66
2023/09/30 11:06:46;;;;;;;8.80;2.88;;;;;;;19.70;69.27;102397.09;4963661;28;20095;-70
2023/09/30 11:09:21;;;;;;;8.68;3.20;;;;;;;19.47;66.82;102405.03;4965103;28;20026;-67
2023/09/30 11:11:49;;;;;;;7.40;3.22;;;;;;;19.31;68.75;102403.31;4983013;28;20077;-67
2023/09/30 11:14:28;;;;;;;8.77;3.42;;;;;;;19.13;70.91;102401.78;4983034;28;20104;-67